sensor_id;sensor_type;location;lat;lon;timestamp;P1;durP1;ratioP1;P2;durP2;ratioP2
72201;SDS011;60105;54.956;73.412;2022-07-10T00:02:01;12.37;;;6.93;;
72201;SDS011;60105;54.956;73.412;2022-07-10T00:04:32;9.35;;;7.68;;
72201;SDS011;60105;54.956;73.412;2022-07-10T00:06:58;9.15;;;7.53;;
72201;SDS011;60105;54.956;73.412;2022-07-10T00:09:24;8.77;;;7.43;;
72201;SDS011;60105;54.956;73.412;2022-07-10T00:11:53;10.23;;;7.60;;
72201;SDS011;60105;54.956;73.412;2022-07-10T00:14:19;9.07;;;6.50;;
72201;SDS011;60105;54.956;73.412;2022-07-10T00:16:46;10.00;;;7.55;;
72201;SDS011;60105;54.956;73.412;2022-07-10T00:19:22;11.43;;;7.78;;
72201;SDS011;60105;54.956;73.412;2022-07-10T00:21:48;10.00;;;7.15;;
72201;SDS011;60105;54.956;73.412;2022-07-10T00:24:19;9.93;;;7.10;;
72201;SDS011;60105;54.956;73.412;2022-07-10T00:26:45;10.03;;;7.40;;
72201;SDS011;60105;54.956;73.412;2022-07-10T00:29:13;11.65;;;6.93;;
72201;SDS011;60105;54.956;73.412;2022-07-10T00:31:40;11.27;;;7.03;;
72201;SDS011;60105;54.956;73.412;2022-07-10T00:34:06;8.38;;;6.80;;
72201;SDS011;60105;54.956;73.412;2022-07-10T00:36:32;9.07;;;6.97;;
72201;SDS011;60105;54.956;73.412;2022-07-10T00:38:58;9.10;;;6.67;;
72201;SDS011;60105;54.956;73.412;2022-07-10T00:41:24;9.32;;;6.35;;
72201;SDS011;60105;54.956;73.412;2022-07-10T00:43:51;10.00;;;6.85;;
72201;SDS011;60105;54.956;73.412;2022-07-10T00:46:32;9.57;;;6.70;;
72201;SDS011;60105;54.956;73.412;2022-07-10T00:48:58;9.13;;;6.88;;
72201;SDS011;60105;54.956;73.412;2022-07-10T00:51:28;11.57;;;6.77;;
72201;SDS011;60105;54.956;73.412;2022-07-10T00:54:06;9.05;;;7.68;;
72201;SDS011;60105;54.956;73.412;2022-07-10T00:56:32;10.90;;;7.38;;
72201;SDS011;60105;54.956;73.412;2022-07-10T00:59:03;9.13;;;7.45;;
72201;SDS011;60105;54.956;73.412;2022-07-10T01:01:29;12.20;;;7.55;;
72201;SDS011;60105;54.956;73.412;2022-07-10T01:03:56;10.07;;;7.63;;
72201;SDS011;60105;54.956;73.412;2022-07-10T01:06:26;12.07;;;7.88;;
72201;SDS011;60105;54.956;73.412;2022-07-10T01:08:53;12.63;;;7.50;;
72201;SDS011;60105;54.956;73.412;2022-07-10T01:11:19;9.40;;;7.07;;
72201;SDS011;60105;54.956;73.412;2022-07-10T01:13:57;8.35;;;6.97;;
72201;SDS011;60105;54.956;73.412;2022-07-10T01:16:23;11.53;;;7.53;;
72201;SDS011;60105;54.956;73.412;2022-07-10T01:18:49;10.77;;;8.02;;
72201;SDS011;60105;54.956;73.412;2022-07-10T01:23:54;10.30;;;8.05;;
72201;SDS011;60105;54.956;73.412;2022-07-10T01:26:26;17.33;;;8.30;;
72201;SDS011;60105;54.956;73.412;2022-07-10T01:28:58;11.53;;;7.70;;
72201;SDS011;60105;54.956;73.412;2022-07-10T01:31:33;11.07;;;8.00;;
72201;SDS011;60105;54.956;73.412;2022-07-10T01:34:00;9.93;;;7.60;;
72201;SDS011;60105;54.956;73.412;2022-07-10T01:36:30;11.25;;;8.32;;
72201;SDS011;60105;54.956;73.412;2022-07-10T01:38:57;11.27;;;7.88;;
72201;SDS011;60105;54.956;73.412;2022-07-10T01:41:23;14.60;;;8.23;;
72201;SDS011;60105;54.956;73.412;2022-07-10T01:43:54;12.18;;;8.00;;
72201;SDS011;60105;54.956;73.412;2022-07-10T01:46:20;10.90;;;7.85;;
72201;SDS011;60105;54.956;73.412;2022-07-10T01:48:47;11.77;;;7.70;;
72201;SDS011;60105;54.956;73.412;2022-07-10T01:51:13;11.00;;;8.20;;
72201;SDS011;60105;54.956;73.412;2022-07-10T01:53:45;12.03;;;7.47;;
72201;SDS011;60105;54.956;73.412;2022-07-10T01:56:12;11.43;;;8.00;;
72201;SDS011;60105;54.956;73.412;2022-07-10T01:58:39;8.50;;;7.40;;
72201;SDS011;60105;54.956;73.412;2022-07-10T02:01:06;10.55;;;8.15;;
72201;SDS011;60105;54.956;73.412;2022-07-10T02:03:33;9.98;;;7.30;;
72201;SDS011;60105;54.956;73.412;2022-07-10T02:06:18;13.20;;;7.80;;
72201;SDS011;60105;54.956;73.412;2022-07-10T02:08:44;10.85;;;7.53;;
72201;SDS011;60105;54.956;73.412;2022-07-10T02:11:11;9.18;;;7.15;;
72201;SDS011;60105;54.956;73.412;2022-07-10T02:13:38;11.15;;;8.13;;
72201;SDS011;60105;54.956;73.412;2022-07-10T02:16:05;10.65;;;7.57;;
72201;SDS011;60105;54.956;73.412;2022-07-10T02:18:31;10.00;;;7.80;;
72201;SDS011;60105;54.956;73.412;2022-07-10T02:20:58;11.18;;;7.85;;
72201;SDS011;60105;54.956;73.412;2022-07-10T02:23:24;10.32;;;7.90;;
72201;SDS011;60105;54.956;73.412;2022-07-10T02:25:50;11.40;;;7.97;;
72201;SDS011;60105;54.956;73.412;2022-07-10T02:28:16;10.90;;;7.47;;
72201;SDS011;60105;54.956;73.412;2022-07-10T02:30:42;12.37;;;7.90;;
72201;SDS011;60105;54.956;73.412;2022-07-10T02:33:08;10.75;;;7.40;;
72201;SDS011;60105;54.956;73.412;2022-07-10T02:35:34;9.95;;;7.85;;
72201;SDS011;60105;54.956;73.412;2022-07-10T02:38:01;10.43;;;7.60;;
72201;SDS011;60105;54.956;73.412;2022-07-10T02:40:27;11.75;;;7.18;;
72201;SDS011;60105;54.956;73.412;2022-07-10T02:43:03;9.83;;;7.93;;
72201;SDS011;60105;54.956;73.412;2022-07-10T02:45:29;12.32;;;8.52;;
72201;SDS011;60105;54.956;73.412;2022-07-10T02:47:55;10.70;;;7.50;;
72201;SDS011;60105;54.956;73.412;2022-07-10T02:50:22;9.65;;;7.97;;
72201;SDS011;60105;54.956;73.412;2022-07-10T02:52:48;10.88;;;8.00;;
72201;SDS011;60105;54.956;73.412;2022-07-10T02:55:19;10.67;;;7.67;;
72201;SDS011;60105;54.956;73.412;2022-07-10T02:57:46;12.32;;;8.60;;
72201;SDS011;60105;54.956;73.412;2022-07-10T03:00:12;11.10;;;7.15;;
72201;SDS011;60105;54.956;73.412;2022-07-10T03:02:44;9.77;;;7.68;;
72201;SDS011;60105;54.956;73.412;2022-07-10T03:05:10;9.57;;;8.10;;
72201;SDS011;60105;54.956;73.412;2022-07-10T03:07:46;9.87;;;8.23;;
72201;SDS011;60105;54.956;73.412;2022-07-10T03:10:13;11.23;;;8.48;;
72201;SDS011;60105;54.956;73.412;2022-07-10T03:12:50;13.75;;;8.02;;
72201;SDS011;60105;54.956;73.412;2022-07-10T03:15:16;10.23;;;7.35;;
72201;SDS011;60105;54.956;73.412;2022-07-10T03:17:44;10.00;;;7.05;;
72201;SDS011;60105;54.956;73.412;2022-07-10T03:20:10;12.47;;;7.47;;
72201;SDS011;60105;54.956;73.412;2022-07-10T03:22:36;9.10;;;7.70;;
72201;SDS011;60105;54.956;73.412;2022-07-10T03:25:03;9.07;;;6.97;;
72201;SDS011;60105;54.956;73.412;2022-07-10T03:27:30;10.25;;;7.80;;
72201;SDS011;60105;54.956;73.412;2022-07-10T03:29:56;10.23;;;7.55;;
72201;SDS011;60105;54.956;73.412;2022-07-10T03:32:23;11.53;;;7.57;;
72201;SDS011;60105;54.956;73.412;2022-07-10T03:35:00;10.20;;;7.40;;
72201;SDS011;60105;54.956;73.412;2022-07-10T03:37:31;11.07;;;7.40;;
72201;SDS011;60105;54.956;73.412;2022-07-10T03:39:58;9.98;;;7.55;;
72201;SDS011;60105;54.956;73.412;2022-07-10T03:42:24;13.00;;;7.60;;
72201;SDS011;60105;54.956;73.412;2022-07-10T03:44:50;10.40;;;7.27;;
72201;SDS011;60105;54.956;73.412;2022-07-10T03:47:18;10.65;;;6.78;;
72201;SDS011;60105;54.956;73.412;2022-07-10T03:49:44;15.65;;;12.73;;
72201;SDS011;60105;54.956;73.412;2022-07-10T03:52:11;8.85;;;6.53;;
72201;SDS011;60105;54.956;73.412;2022-07-10T03:54:38;8.07;;;6.15;;
72201;SDS011;60105;54.956;73.412;2022-07-10T03:57:14;9.37;;;6.63;;
72201;SDS011;60105;54.956;73.412;2022-07-10T04:00:03;10.23;;;6.45;;
72201;SDS011;60105;54.956;73.412;2022-07-10T04:02:37;8.90;;;6.55;;
72201;SDS011;60105;54.956;73.412;2022-07-10T04:05:07;11.98;;;7.65;;
72201;SDS011;60105;54.956;73.412;2022-07-10T04:07:35;8.30;;;6.55;;
72201;SDS011;60105;54.956;73.412;2022-07-10T04:10:02;11.63;;;6.17;;
72201;SDS011;60105;54.956;73.412;2022-07-10T04:12:29;8.65;;;6.20;;
72201;SDS011;60105;54.956;73.412;2022-07-10T04:14:55;8.43;;;6.30;;
72201;SDS011;60105;54.956;73.412;2022-07-10T04:17:22;7.57;;;6.47;;
72201;SDS011;60105;54.956;73.412;2022-07-10T04:19:48;8.77;;;6.70;;
72201;SDS011;60105;54.956;73.412;2022-07-10T04:22:14;9.23;;;6.47;;
72201;SDS011;60105;54.956;73.412;2022-07-10T04:24:40;9.20;;;6.55;;
72201;SDS011;60105;54.956;73.412;2022-07-10T04:27:11;9.65;;;6.32;;
72201;SDS011;60105;54.956;73.412;2022-07-10T04:29:37;9.15;;;6.07;;
72201;SDS011;60105;54.956;73.412;2022-07-10T04:32:03;7.80;;;6.30;;
72201;SDS011;60105;54.956;73.412;2022-07-10T04:34:30;8.80;;;6.93;;
72201;SDS011;60105;54.956;73.412;2022-07-10T04:36:56;9.70;;;6.35;;
72201;SDS011;60105;54.956;73.412;2022-07-10T04:39:22;7.38;;;5.50;;
72201;SDS011;60105;54.956;73.412;2022-07-10T04:41:48;7.57;;;6.13;;
72201;SDS011;60105;54.956;73.412;2022-07-10T04:44:22;8.10;;;5.60;;
72201;SDS011;60105;54.956;73.412;2022-07-10T04:46:48;7.10;;;5.87;;
72201;SDS011;60105;54.956;73.412;2022-07-10T04:49:14;8.50;;;6.45;;
72201;SDS011;60105;54.956;73.412;2022-07-10T04:51:40;7.85;;;5.57;;
72201;SDS011;60105;54.956;73.412;2022-07-10T04:54:06;10.65;;;5.90;;
72201;SDS011;60105;54.956;73.412;2022-07-10T04:56:35;11.50;;;5.93;;
72201;SDS011;60105;54.956;73.412;2022-07-10T04:59:06;9.13;;;5.83;;
72201;SDS011;60105;54.956;73.412;2022-07-10T05:01:33;9.43;;;5.88;;
72201;SDS011;60105;54.956;73.412;2022-07-10T05:04:10;10.75;;;6.13;;
72201;SDS011;60105;54.956;73.412;2022-07-10T05:06:36;11.95;;;6.57;;
72201;SDS011;60105;54.956;73.412;2022-07-10T05:09:02;10.27;;;5.97;;
72201;SDS011;60105;54.956;73.412;2022-07-10T05:11:36;8.00;;;5.67;;
72201;SDS011;60105;54.956;73.412;2022-07-10T05:14:02;7.43;;;5.57;;
72201;SDS011;60105;54.956;73.412;2022-07-10T05:16:34;6.82;;;5.57;;
72201;SDS011;60105;54.956;73.412;2022-07-10T05:19:00;8.30;;;5.95;;
72201;SDS011;60105;54.956;73.412;2022-07-10T05:21:26;9.10;;;5.40;;
72201;SDS011;60105;54.956;73.412;2022-07-10T05:24:02;7.50;;;6.00;;
72201;SDS011;60105;54.956;73.412;2022-07-10T05:26:29;8.98;;;5.80;;
72201;SDS011;60105;54.956;73.412;2022-07-10T05:28:55;7.63;;;5.20;;
72201;SDS011;60105;54.956;73.412;2022-07-10T05:31:21;9.82;;;5.60;;
72201;SDS011;60105;54.956;73.412;2022-07-10T05:33:50;7.63;;;5.60;;
72201;SDS011;60105;54.956;73.412;2022-07-10T05:36:17;7.70;;;5.47;;
72201;SDS011;60105;54.956;73.412;2022-07-10T05:38:46;8.45;;;6.25;;
72201;SDS011;60105;54.956;73.412;2022-07-10T05:41:12;8.98;;;5.82;;
72201;SDS011;60105;54.956;73.412;2022-07-10T05:43:39;9.25;;;6.20;;
72201;SDS011;60105;54.956;73.412;2022-07-10T05:46:05;10.00;;;6.00;;
72201;SDS011;60105;54.956;73.412;2022-07-10T05:48:31;7.60;;;5.80;;
72201;SDS011;60105;54.956;73.412;2022-07-10T05:51:02;10.32;;;5.47;;
72201;SDS011;60105;54.956;73.412;2022-07-10T05:53:28;8.10;;;5.82;;
72201;SDS011;60105;54.956;73.412;2022-07-10T05:55:54;9.77;;;6.00;;
72201;SDS011;60105;54.956;73.412;2022-07-10T05:58:30;10.48;;;6.32;;
72201;SDS011;60105;54.956;73.412;2022-07-10T06:00:56;9.47;;;6.20;;
72201;SDS011;60105;54.956;73.412;2022-07-10T06:03:22;11.45;;;6.28;;
72201;SDS011;60105;54.956;73.412;2022-07-10T06:05:49;9.57;;;5.90;;
72201;SDS011;60105;54.956;73.412;2022-07-10T06:08:16;7.70;;;5.88;;
72201;SDS011;60105;54.956;73.412;2022-07-10T06:10:42;8.50;;;5.93;;
72201;SDS011;60105;54.956;73.412;2022-07-10T06:13:11;7.17;;;5.57;;
72201;SDS011;60105;54.956;73.412;2022-07-10T06:15:42;9.75;;;6.50;;
72201;SDS011;60105;54.956;73.412;2022-07-10T06:18:08;7.68;;;5.72;;
72201;SDS011;60105;54.956;73.412;2022-07-10T06:20:35;9.13;;;5.40;;
72201;SDS011;60105;54.956;73.412;2022-07-10T06:23:01;9.57;;;5.32;;
72201;SDS011;60105;54.956;73.412;2022-07-10T06:25:32;10.80;;;6.20;;
72201;SDS011;60105;54.956;73.412;2022-07-10T06:28:04;9.00;;;5.38;;
72201;SDS011;60105;54.956;73.412;2022-07-10T06:30:31;8.52;;;5.10;;
72201;SDS011;60105;54.956;73.412;2022-07-10T06:32:57;8.15;;;5.97;;
72201;SDS011;60105;54.956;73.412;2022-07-10T06:35:23;7.63;;;5.65;;
72201;SDS011;60105;54.956;73.412;2022-07-10T06:37:49;12.23;;;6.40;;
72201;SDS011;60105;54.956;73.412;2022-07-10T06:40:17;9.40;;;5.68;;
72201;SDS011;60105;54.956;73.412;2022-07-10T06:42:55;10.15;;;5.50;;
72201;SDS011;60105;54.956;73.412;2022-07-10T06:45:21;7.47;;;5.50;;
72201;SDS011;60105;54.956;73.412;2022-07-10T06:47:48;6.93;;;5.45;;
72201;SDS011;60105;54.956;73.412;2022-07-10T06:50:27;9.40;;;6.33;;
72201;SDS011;60105;54.956;73.412;2022-07-10T06:52:59;8.38;;;5.72;;
72201;SDS011;60105;54.956;73.412;2022-07-10T06:55:25;11.70;;;6.57;;
72201;SDS011;60105;54.956;73.412;2022-07-10T06:57:53;19.75;;;7.50;;
72201;SDS011;60105;54.956;73.412;2022-07-10T07:00:25;11.10;;;6.45;;
72201;SDS011;60105;54.956;73.412;2022-07-10T07:02:51;9.87;;;6.30;;
72201;SDS011;60105;54.956;73.412;2022-07-10T07:05:28;23.70;;;9.30;;
72201;SDS011;60105;54.956;73.412;2022-07-10T07:07:54;22.85;;;7.50;;
72201;SDS011;60105;54.956;73.412;2022-07-10T07:10:20;16.90;;;7.85;;
72201;SDS011;60105;54.956;73.412;2022-07-10T07:12:46;15.18;;;7.03;;
72201;SDS011;60105;54.956;73.412;2022-07-10T07:15:12;26.40;;;10.27;;
72201;SDS011;60105;54.956;73.412;2022-07-10T07:17:44;20.42;;;7.35;;
72201;SDS011;60105;54.956;73.412;2022-07-10T07:20:33;12.48;;;6.88;;
72201;SDS011;60105;54.956;73.412;2022-07-10T07:23:21;22.15;;;7.07;;
72201;SDS011;60105;54.956;73.412;2022-07-10T07:25:48;17.80;;;7.90;;
72201;SDS011;60105;54.956;73.412;2022-07-10T07:28:15;12.20;;;6.13;;
72201;SDS011;60105;54.956;73.412;2022-07-10T07:30:43;15.95;;;7.07;;
72201;SDS011;60105;54.956;73.412;2022-07-10T07:33:09;21.02;;;7.22;;
72201;SDS011;60105;54.956;73.412;2022-07-10T07:35:45;17.23;;;6.70;;
72201;SDS011;60105;54.956;73.412;2022-07-10T07:38:20;11.82;;;6.05;;
72201;SDS011;60105;54.956;73.412;2022-07-10T07:40:47;8.90;;;5.53;;
72201;SDS011;60105;54.956;73.412;2022-07-10T07:43:13;9.95;;;5.95;;
72201;SDS011;60105;54.956;73.412;2022-07-10T07:45:40;9.10;;;6.05;;
72201;SDS011;60105;54.956;73.412;2022-07-10T07:48:06;8.93;;;5.95;;
72201;SDS011;60105;54.956;73.412;2022-07-10T07:50:38;9.43;;;5.90;;
72201;SDS011;60105;54.956;73.412;2022-07-10T07:53:04;10.83;;;5.70;;
72201;SDS011;60105;54.956;73.412;2022-07-10T07:55:31;12.70;;;5.63;;
72201;SDS011;60105;54.956;73.412;2022-07-10T07:57:59;23.45;;;7.60;;
72201;SDS011;60105;54.956;73.412;2022-07-10T08:00:26;28.35;;;9.02;;
72201;SDS011;60105;54.956;73.412;2022-07-10T08:02:54;15.90;;;5.88;;
72201;SDS011;60105;54.956;73.412;2022-07-10T08:05:22;10.43;;;5.87;;
72201;SDS011;60105;54.956;73.412;2022-07-10T08:08:00;9.45;;;5.72;;
72201;SDS011;60105;54.956;73.412;2022-07-10T08:10:30;9.55;;;7.05;;
72201;SDS011;60105;54.956;73.412;2022-07-10T08:12:56;8.60;;;5.97;;
72201;SDS011;60105;54.956;73.412;2022-07-10T08:15:23;10.18;;;5.28;;
72201;SDS011;60105;54.956;73.412;2022-07-10T08:17:49;9.60;;;5.80;;
72201;SDS011;60105;54.956;73.412;2022-07-10T08:20:17;11.18;;;5.65;;
72201;SDS011;60105;54.956;73.412;2022-07-10T08:22:44;8.65;;;5.88;;
72201;SDS011;60105;54.956;73.412;2022-07-10T08:25:18;9.02;;;5.72;;
72201;SDS011;60105;54.956;73.412;2022-07-10T08:27:45;9.82;;;6.20;;
72201;SDS011;60105;54.956;73.412;2022-07-10T08:30:26;8.30;;;5.90;;
72201;SDS011;60105;54.956;73.412;2022-07-10T08:33:02;32.65;;;9.23;;
72201;SDS011;60105;54.956;73.412;2022-07-10T08:35:30;24.30;;;8.57;;
72201;SDS011;60105;54.956;73.412;2022-07-10T08:37:56;17.15;;;7.20;;
72201;SDS011;60105;54.956;73.412;2022-07-10T08:40:22;8.40;;;5.70;;
72201;SDS011;60105;54.956;73.412;2022-07-10T08:42:48;8.83;;;5.77;;
72201;SDS011;60105;54.956;73.412;2022-07-10T08:45:16;14.80;;;6.65;;
72201;SDS011;60105;54.956;73.412;2022-07-10T08:47:42;19.52;;;7.03;;
72201;SDS011;60105;54.956;73.412;2022-07-10T08:50:21;13.02;;;6.43;;
72201;SDS011;60105;54.956;73.412;2022-07-10T08:55:35;9.00;;;5.67;;
72201;SDS011;60105;54.956;73.412;2022-07-10T08:58:02;7.20;;;5.68;;
72201;SDS011;60105;54.956;73.412;2022-07-10T09:00:30;7.82;;;5.28;;
72201;SDS011;60105;54.956;73.412;2022-07-10T09:03:02;8.68;;;5.63;;
72201;SDS011;60105;54.956;73.412;2022-07-10T09:05:39;9.68;;;5.60;;
72201;SDS011;60105;54.956;73.412;2022-07-10T09:08:24;8.03;;;5.30;;
72201;SDS011;60105;54.956;73.412;2022-07-10T09:11:16;12.35;;;5.55;;
72201;SDS011;60105;54.956;73.412;2022-07-10T09:13:50;11.00;;;6.35;;
72201;SDS011;60105;54.956;73.412;2022-07-10T09:16:30;15.25;;;6.40;;
72201;SDS011;60105;54.956;73.412;2022-07-10T09:19:21;24.63;;;8.70;;
72201;SDS011;60105;54.956;73.412;2022-07-10T09:21:52;20.17;;;8.00;;
72201;SDS011;60105;54.956;73.412;2022-07-10T09:24:36;9.70;;;5.05;;
72201;SDS011;60105;54.956;73.412;2022-07-10T09:27:06;8.55;;;5.35;;
72201;SDS011;60105;54.956;73.412;2022-07-10T09:29:44;8.07;;;4.63;;
72201;SDS011;60105;54.956;73.412;2022-07-10T09:32:12;10.25;;;5.75;;
72201;SDS011;60105;54.956;73.412;2022-07-10T09:34:39;8.97;;;4.90;;
72201;SDS011;60105;54.956;73.412;2022-07-10T09:39:55;12.48;;;5.55;;
72201;SDS011;60105;54.956;73.412;2022-07-10T09:42:47;10.98;;;5.30;;
72201;SDS011;60105;54.956;73.412;2022-07-10T09:45:14;8.38;;;5.40;;
72201;SDS011;60105;54.956;73.412;2022-07-10T09:50:20;7.32;;;5.05;;
72201;SDS011;60105;54.956;73.412;2022-07-10T09:53:02;6.38;;;4.47;;
72201;SDS011;60105;54.956;73.412;2022-07-10T09:55:30;7.97;;;5.07;;
72201;SDS011;60105;54.956;73.412;2022-07-10T09:58:04;8.35;;;5.40;;
72201;SDS011;60105;54.956;73.412;2022-07-10T10:00:40;7.47;;;5.60;;
72201;SDS011;60105;54.956;73.412;2022-07-10T10:03:09;8.48;;;5.10;;
72201;SDS011;60105;54.956;73.412;2022-07-10T10:08:20;8.65;;;4.90;;
72201;SDS011;60105;54.956;73.412;2022-07-10T10:11:00;7.47;;;4.40;;
72201;SDS011;60105;54.956;73.412;2022-07-10T10:13:29;6.90;;;5.20;;
72201;SDS011;60105;54.956;73.412;2022-07-10T10:16:03;8.73;;;5.38;;
72201;SDS011;60105;54.956;73.412;2022-07-10T10:18:33;10.70;;;5.30;;
72201;SDS011;60105;54.956;73.412;2022-07-10T10:21:06;7.07;;;5.40;;
72201;SDS011;60105;54.956;73.412;2022-07-10T10:23:34;7.85;;;4.82;;
72201;SDS011;60105;54.956;73.412;2022-07-10T10:26:05;9.23;;;5.60;;
72201;SDS011;60105;54.956;73.412;2022-07-10T10:28:32;8.88;;;5.85;;
72201;SDS011;60105;54.956;73.412;2022-07-10T10:30:59;7.80;;;4.97;;
72201;SDS011;60105;54.956;73.412;2022-07-10T10:36:14;7.93;;;4.88;;
72201;SDS011;60105;54.956;73.412;2022-07-10T10:39:19;7.87;;;5.27;;
72201;SDS011;60105;54.956;73.412;2022-07-10T10:41:47;13.23;;;5.35;;
72201;SDS011;60105;54.956;73.412;2022-07-10T10:44:23;9.77;;;5.07;;
72201;SDS011;60105;54.956;73.412;2022-07-10T10:49:51;7.30;;;5.55;;
72201;SDS011;60105;54.956;73.412;2022-07-10T10:52:19;9.47;;;5.67;;
72201;SDS011;60105;54.956;73.412;2022-07-10T10:57:22;8.55;;;4.90;;
72201;SDS011;60105;54.956;73.412;2022-07-10T11:00:02;7.57;;;4.97;;
72201;SDS011;60105;54.956;73.412;2022-07-10T11:02:34;7.63;;;4.80;;
72201;SDS011;60105;54.956;73.412;2022-07-10T11:07:57;8.57;;;5.20;;
72201;SDS011;60105;54.956;73.412;2022-07-10T11:13:16;9.10;;;5.57;;
72201;SDS011;60105;54.956;73.412;2022-07-10T11:15:49;8.10;;;5.68;;
72201;SDS011;60105;54.956;73.412;2022-07-10T11:18:19;10.27;;;4.87;;
72201;SDS011;60105;54.956;73.412;2022-07-10T11:20:50;7.32;;;5.38;;
72201;SDS011;60105;54.956;73.412;2022-07-10T11:26:10;6.30;;;4.85;;
72201;SDS011;60105;54.956;73.412;2022-07-10T11:31:09;9.97;;;5.20;;
72201;SDS011;60105;54.956;73.412;2022-07-10T11:33:39;8.73;;;5.95;;
72201;SDS011;60105;54.956;73.412;2022-07-10T11:36:11;10.70;;;5.78;;
72201;SDS011;60105;54.956;73.412;2022-07-10T11:38:39;9.60;;;5.65;;
72201;SDS011;60105;54.956;73.412;2022-07-10T11:41:16;10.93;;;5.53;;
72201;SDS011;60105;54.956;73.412;2022-07-10T11:43:47;9.37;;;5.40;;
72201;SDS011;60105;54.956;73.412;2022-07-10T11:46:17;10.73;;;6.15;;
72201;SDS011;60105;54.956;73.412;2022-07-10T11:48:46;12.50;;;5.90;;
72201;SDS011;60105;54.956;73.412;2022-07-10T11:54:11;27.73;;;6.90;;
72201;SDS011;60105;54.956;73.412;2022-07-10T11:56:48;23.53;;;9.37;;
72201;SDS011;60105;54.956;73.412;2022-07-10T11:59:18;20.60;;;8.27;;
72201;SDS011;60105;54.956;73.412;2022-07-10T12:01:49;11.80;;;5.30;;
72201;SDS011;60105;54.956;73.412;2022-07-10T12:04:20;11.68;;;6.05;;
72201;SDS011;60105;54.956;73.412;2022-07-10T12:06:52;12.40;;;6.82;;
72201;SDS011;60105;54.956;73.412;2022-07-10T12:09:20;16.33;;;6.40;;
72201;SDS011;60105;54.956;73.412;2022-07-10T12:12:04;15.35;;;6.43;;
72201;SDS011;60105;54.956;73.412;2022-07-10T12:14:42;11.02;;;6.18;;
72201;SDS011;60105;54.956;73.412;2022-07-10T12:17:11;12.27;;;6.15;;
72201;SDS011;60105;54.956;73.412;2022-07-10T12:19:42;16.95;;;6.22;;
72201;SDS011;60105;54.956;73.412;2022-07-10T12:22:08;9.97;;;6.23;;
72201;SDS011;60105;54.956;73.412;2022-07-10T12:24:35;13.18;;;5.82;;
72201;SDS011;60105;54.956;73.412;2022-07-10T12:27:01;14.43;;;6.05;;
72201;SDS011;60105;54.956;73.412;2022-07-10T12:29:28;12.35;;;5.72;;
72201;SDS011;60105;54.956;73.412;2022-07-10T12:31:59;6.78;;;5.18;;
72201;SDS011;60105;54.956;73.412;2022-07-10T12:34:33;10.23;;;5.13;;
72201;SDS011;60105;54.956;73.412;2022-07-10T12:37:06;8.52;;;5.63;;
72201;SDS011;60105;54.956;73.412;2022-07-10T12:39:37;8.27;;;4.70;;
72201;SDS011;60105;54.956;73.412;2022-07-10T12:42:11;15.88;;;6.78;;
72201;SDS011;60105;54.956;73.412;2022-07-10T12:44:41;27.25;;;8.93;;
72201;SDS011;60105;54.956;73.412;2022-07-10T12:47:14;12.67;;;5.70;;
72201;SDS011;60105;54.956;73.412;2022-07-10T12:57:46;9.27;;;5.80;;
72201;SDS011;60105;54.956;73.412;2022-07-10T13:00:20;25.40;;;8.00;;
72201;SDS011;60105;54.956;73.412;2022-07-10T13:02:59;13.18;;;6.30;;
72201;SDS011;60105;54.956;73.412;2022-07-10T13:08:07;9.25;;;5.60;;
72201;SDS011;60105;54.956;73.412;2022-07-10T13:10:49;8.93;;;5.40;;
72201;SDS011;60105;54.956;73.412;2022-07-10T13:13:21;7.60;;;5.33;;
72201;SDS011;60105;54.956;73.412;2022-07-10T13:15:53;10.73;;;5.45;;
72201;SDS011;60105;54.956;73.412;2022-07-10T13:18:20;11.80;;;5.07;;
72201;SDS011;60105;54.956;73.412;2022-07-10T13:20:50;9.25;;;5.20;;
72201;SDS011;60105;54.956;73.412;2022-07-10T13:23:26;8.38;;;5.50;;
72201;SDS011;60105;54.956;73.412;2022-07-10T13:25:58;9.10;;;6.57;;
72201;SDS011;60105;54.956;73.412;2022-07-10T13:28:36;8.98;;;6.03;;
72201;SDS011;60105;54.956;73.412;2022-07-10T13:31:03;7.78;;;6.00;;
72201;SDS011;60105;54.956;73.412;2022-07-10T13:33:29;7.25;;;6.03;;
72201;SDS011;60105;54.956;73.412;2022-07-10T13:36:00;7.93;;;5.97;;
72201;SDS011;60105;54.956;73.412;2022-07-10T13:38:27;9.87;;;5.90;;
72201;SDS011;60105;54.956;73.412;2022-07-10T13:40:54;8.70;;;6.25;;
72201;SDS011;60105;54.956;73.412;2022-07-10T13:43:20;8.73;;;5.60;;
72201;SDS011;60105;54.956;73.412;2022-07-10T13:45:47;7.72;;;6.03;;
72201;SDS011;60105;54.956;73.412;2022-07-10T13:48:18;8.82;;;5.90;;
72201;SDS011;60105;54.956;73.412;2022-07-10T13:50:54;9.67;;;5.83;;
72201;SDS011;60105;54.956;73.412;2022-07-10T13:53:30;11.32;;;6.13;;
72201;SDS011;60105;54.956;73.412;2022-07-10T13:55:56;9.20;;;5.82;;
72201;SDS011;60105;54.956;73.412;2022-07-10T13:58:23;9.88;;;5.97;;
72201;SDS011;60105;54.956;73.412;2022-07-10T14:00:49;8.75;;;5.93;;
72201;SDS011;60105;54.956;73.412;2022-07-10T14:03:15;7.40;;;5.37;;
72201;SDS011;60105;54.956;73.412;2022-07-10T14:05:46;9.50;;;5.80;;
72201;SDS011;60105;54.956;73.412;2022-07-10T14:08:13;8.52;;;5.70;;
72201;SDS011;60105;54.956;73.412;2022-07-10T14:10:39;10.80;;;6.20;;
72201;SDS011;60105;54.956;73.412;2022-07-10T14:13:13;9.43;;;6.03;;
72201;SDS011;60105;54.956;73.412;2022-07-10T14:15:44;11.77;;;6.13;;
72201;SDS011;60105;54.956;73.412;2022-07-10T14:18:15;12.02;;;6.00;;
72201;SDS011;60105;54.956;73.412;2022-07-10T14:21:00;8.68;;;5.70;;
72201;SDS011;60105;54.956;73.412;2022-07-10T14:23:30;9.40;;;5.90;;
72201;SDS011;60105;54.956;73.412;2022-07-10T14:25:58;9.50;;;6.15;;
72201;SDS011;60105;54.956;73.412;2022-07-10T14:28:29;9.17;;;5.73;;
72201;SDS011;60105;54.956;73.412;2022-07-10T14:30:55;8.85;;;6.05;;
72201;SDS011;60105;54.956;73.412;2022-07-10T14:33:26;7.35;;;5.55;;
72201;SDS011;60105;54.956;73.412;2022-07-10T14:35:52;10.60;;;6.05;;
72201;SDS011;60105;54.956;73.412;2022-07-10T14:38:18;9.80;;;5.78;;
72201;SDS011;60105;54.956;73.412;2022-07-10T14:40:44;8.97;;;6.20;;
72201;SDS011;60105;54.956;73.412;2022-07-10T14:43:11;10.73;;;5.93;;
72201;SDS011;60105;54.956;73.412;2022-07-10T14:45:37;10.02;;;6.22;;
72201;SDS011;60105;54.956;73.412;2022-07-10T14:48:13;10.45;;;6.75;;
72201;SDS011;60105;54.956;73.412;2022-07-10T14:50:40;9.25;;;7.05;;
72201;SDS011;60105;54.956;73.412;2022-07-10T14:53:07;10.37;;;7.07;;
72201;SDS011;60105;54.956;73.412;2022-07-10T14:55:36;10.35;;;7.28;;
72201;SDS011;60105;54.956;73.412;2022-07-10T14:58:02;10.68;;;8.30;;
72201;SDS011;60105;54.956;73.412;2022-07-10T15:00:29;12.43;;;9.35;;
72201;SDS011;60105;54.956;73.412;2022-07-10T15:02:55;15.43;;;9.60;;
72201;SDS011;60105;54.956;73.412;2022-07-10T15:05:31;14.33;;;9.90;;
72201;SDS011;60105;54.956;73.412;2022-07-10T15:07:59;15.95;;;8.85;;
72201;SDS011;60105;54.956;73.412;2022-07-10T15:10:29;14.13;;;9.43;;
72201;SDS011;60105;54.956;73.412;2022-07-10T15:12:58;12.32;;;8.93;;
72201;SDS011;60105;54.956;73.412;2022-07-10T15:15:25;13.35;;;9.32;;
72201;SDS011;60105;54.956;73.412;2022-07-10T15:17:56;12.10;;;8.80;;
72201;SDS011;60105;54.956;73.412;2022-07-10T15:20:22;13.95;;;8.27;;
72201;SDS011;60105;54.956;73.412;2022-07-10T15:22:51;14.88;;;8.75;;
72201;SDS011;60105;54.956;73.412;2022-07-10T15:25:17;12.85;;;8.80;;
72201;SDS011;60105;54.956;73.412;2022-07-10T15:27:49;12.45;;;9.15;;
72201;SDS011;60105;54.956;73.412;2022-07-10T15:30:15;12.47;;;9.17;;